createdAt,value
2022-11-21T00:00:21.587Z,21.53
2022-11-21T00:02:55.433Z,19.90
2022-11-21T00:05:23.524Z,19.07
2022-11-21T00:07:51.305Z,19.13
2022-11-21T00:10:19.200Z,20.13
2022-11-21T00:12:46.996Z,19.70
2022-11-21T00:15:16.103Z,19.47
2022-11-21T00:17:44.190Z,19.97
2022-11-21T00:20:22.796Z,20.03
2022-11-21T00:22:51.150Z,19.57
2022-11-21T00:25:18.976Z,20.73
2022-11-21T00:27:46.714Z,19.60
2022-11-21T00:30:17.520Z,20.07
2022-11-21T00:32:46.650Z,19.87
2022-11-21T00:35:14.815Z,19.87
2022-11-21T00:37:45.573Z,20.73
2022-11-21T00:40:19.291Z,18.47
2022-11-21T00:42:47.170Z,18.70
2022-11-21T00:45:18.327Z,19.30
2022-11-21T00:47:50.395Z,19.13
2022-11-21T00:50:24.601Z,19.03
2022-11-21T00:52:56.341Z,19.97
2022-11-21T00:55:24.119Z,20.07
2022-11-21T00:57:51.966Z,20.20
2022-11-21T01:00:20.193Z,22.40
2022-11-21T01:02:48.053Z,21.37
2022-11-21T01:05:19.915Z,20.53
2022-11-21T01:07:49.397Z,20.60
2022-11-21T01:10:17.254Z,20.47
2022-11-21T01:12:47.907Z,19.50
2022-11-21T01:15:15.677Z,20.57
2022-11-21T01:17:46.539Z,19.90
2022-11-21T01:20:16.238Z,19.23
2022-11-21T01:22:46.651Z,19.80
2022-11-21T01:25:14.441Z,20.00
2022-11-21T01:27:44.396Z,20.77
2022-11-21T01:30:14.417Z,18.50
2022-11-21T01:32:42.216Z,19.13
2022-11-21T01:35:11.634Z,19.03
2022-11-21T01:37:39.367Z,19.53
2022-11-21T01:40:09.807Z,19.80
2022-11-21T01:42:50.881Z,19.47
2022-11-21T01:45:57.648Z,19.67
2022-11-21T01:48:30.891Z,19.47
2022-11-21T01:51:05.209Z,18.23
2022-11-21T01:53:33.858Z,20.27
2022-11-21T01:56:03.826Z,18.53
2022-11-21T01:58:35.220Z,18.73
2022-11-21T02:01:03.780Z,19.10
2022-11-21T02:03:37.120Z,18.70
2022-11-21T02:06:06.787Z,17.43
2022-11-21T02:08:34.721Z,16.20
2022-11-21T02:11:13.245Z,17.53
2022-11-21T02:13:41.297Z,17.27
2022-11-21T02:16:11.938Z,17.87
2022-11-21T02:18:39.752Z,18.27
2022-11-21T02:21:16.393Z,17.27
2022-11-21T02:23:51.350Z,17.67
2022-11-21T02:26:20.605Z,17.60
2022-11-21T02:29:01.222Z,18.10
2022-11-21T02:31:29.027Z,17.73
2022-11-21T02:33:56.847Z,16.80
2022-11-21T02:36:48.547Z,18.80
2022-11-21T02:39:24.653Z,18.07
2022-11-21T02:42:02.232Z,19.03
2022-11-21T02:44:34.969Z,18.07
2022-11-21T02:47:03.804Z,18.27
2022-11-21T02:49:43.209Z,16.73
2022-11-21T02:52:11.094Z,16.70
2022-11-21T02:54:38.931Z,18.23
2022-11-21T02:57:08.056Z,18.97
2022-11-21T02:59:36.217Z,17.07
2022-11-21T03:02:04.085Z,17.77
2022-11-21T03:04:31.851Z,18.00
2022-11-21T03:06:59.717Z,17.93
2022-11-21T03:09:27.951Z,16.63
2022-11-21T03:11:58.437Z,16.00
2022-11-21T03:14:32.947Z,17.43
2022-11-21T03:17:00.762Z,18.77
2022-11-21T03:19:28.970Z,20.60
2022-11-21T03:21:57.028Z,20.47
2022-11-21T03:24:27.612Z,17.57
2022-11-21T03:26:55.607Z,18.80
2022-11-21T03:29:23.721Z,16.63
2022-11-21T03:31:52.783Z,16.83
2022-11-21T03:34:20.602Z,20.17
2022-11-21T03:36:51.505Z,21.13
2022-11-21T03:39:19.283Z,22.23
2022-11-21T03:41:47.250Z,23.00
2022-11-21T03:44:15.131Z,19.47
2022-11-21T03:46:44.826Z,19.30
2022-11-21T03:49:21.722Z,20.93
2022-11-21T03:51:52.525Z,19.83
2022-11-21T03:54:20.339Z,20.73
2022-11-21T03:56:48.060Z,21.63
2022-11-21T03:59:15.857Z,21.30
2022-11-21T04:01:44.079Z,21.13
2022-11-21T04:04:16.217Z,20.23
2022-11-21T04:06:44.390Z,20.37
2022-11-21T04:09:12.764Z,20.10
2022-11-21T04:11:40.550Z,22.23
2022-11-21T04:14:12.750Z,17.93
2022-11-21T04:16:40.508Z,20.63
2022-11-21T04:19:08.678Z,19.23
2022-11-21T04:21:37.938Z,19.17
2022-11-21T04:24:06.649Z,19.17
2022-11-21T04:26:34.459Z,18.93
2022-11-21T04:29:02.588Z,16.20
2022-11-21T04:31:30.518Z,16.87
2022-11-21T04:33:58.693Z,18.10
2022-11-21T04:36:26.818Z,17.77
2022-11-21T04:38:55.906Z,20.30
2022-11-21T04:41:23.809Z,19.83
2022-11-21T04:43:54.405Z,19.17
2022-11-21T04:46:28.216Z,21.47
2022-11-21T04:48:58.669Z,17.70
2022-11-21T04:51:28.029Z,17.67
2022-11-21T04:53:57.144Z,19.30
2022-11-21T04:56:25.313Z,16.43
2022-11-21T04:58:56.685Z,19.30
2022-11-21T05:01:24.439Z,15.77
2022-11-21T05:03:53.634Z,19.83
2022-11-21T05:06:21.736Z,18.93
2022-11-21T05:08:53.465Z,19.53
2022-11-21T05:11:40.920Z,20.07
2022-11-21T05:14:08.708Z,21.17
2022-11-21T05:16:37.064Z,20.90
2022-11-21T05:19:04.882Z,20.23
2022-11-21T05:21:32.641Z,20.30
2022-11-21T05:24:00.889Z,20.00
2022-11-21T05:26:29.974Z,19.77
2022-11-21T05:28:57.710Z,18.67
2022-11-21T05:31:25.865Z,18.33
2022-11-21T05:33:59.778Z,16.70
2022-11-21T05:36:27.891Z,19.47
2022-11-21T05:38:55.625Z,17.50
2022-11-21T05:41:23.492Z,19.23
2022-11-21T05:43:51.671Z,20.03
2022-11-21T05:46:21.682Z,19.90
2022-11-21T05:48:51.050Z,20.17
2022-11-21T05:51:19.682Z,21.13
2022-11-21T05:53:48.305Z,20.83
2022-11-21T05:56:17.574Z,19.07
2022-11-21T05:58:45.651Z,19.50
2022-11-21T06:01:15.980Z,20.00
2022-11-21T06:03:43.393Z,19.47
2022-11-21T06:06:12.683Z,17.80
2022-11-21T06:08:42.301Z,21.60
2022-11-21T06:11:11.941Z,19.90
2022-11-21T06:13:41.398Z,22.80
2022-11-21T06:16:11.025Z,21.20
2022-11-21T06:18:45.129Z,20.07
2022-11-21T06:21:15.287Z,20.33
2022-11-21T06:23:43.760Z,20.10
2022-11-21T06:26:14.387Z,18.27
2022-11-21T06:28:43.454Z,19.10
2022-11-21T06:31:12.797Z,19.00
2022-11-21T06:33:42.957Z,19.07
2022-11-21T06:36:12.673Z,18.67
2022-11-21T06:38:40.829Z,18.10
2022-11-21T06:41:12.016Z,19.90
2022-11-21T06:43:46.047Z,19.43
2022-11-21T06:46:15.300Z,18.77
2022-11-21T06:48:44.889Z,18.17
2022-11-21T06:51:17.148Z,17.27
2022-11-21T06:53:55.589Z,17.47
2022-11-21T06:56:24.252Z,18.00
2022-11-21T06:58:54.339Z,18.97
2022-11-21T07:01:22.541Z,17.60
2022-11-21T07:04:06.374Z,16.67
2022-11-21T07:06:35.993Z,17.60
2022-11-21T07:11:57.447Z,17.23
2022-11-21T07:14:26.948Z,18.90
2022-11-21T07:16:57.378Z,14.53
2022-11-21T07:19:29.311Z,15.23
2022-11-21T07:21:57.324Z,15.17
2022-11-21T07:24:25.153Z,15.13
2022-11-21T07:26:55.758Z,15.67
2022-11-21T07:29:25.646Z,16.57
2022-11-21T07:31:56.697Z,14.93
2022-11-21T07:34:25.894Z,16.17
2022-11-21T07:36:53.685Z,16.67
2022-11-21T07:39:21.806Z,15.87
2022-11-21T07:41:49.603Z,15.07
2022-11-21T07:44:17.348Z,14.87
2022-11-21T07:46:46.178Z,15.97
2022-11-21T07:49:13.978Z,15.17
2022-11-21T07:51:43.059Z,14.77
2022-11-21T07:54:11.242Z,14.80
2022-11-21T07:56:41.202Z,13.97
2022-11-21T07:59:08.969Z,14.83
2022-11-21T08:01:42.678Z,14.57
2022-11-21T08:04:13.099Z,14.70
2022-11-21T08:06:42.157Z,14.13
2022-11-21T08:09:11.217Z,15.60
2022-11-21T08:11:38.957Z,15.83
2022-11-21T08:14:06.758Z,14.23
2022-11-21T08:16:37.572Z,14.23
2022-11-21T08:19:06.585Z,14.30
2022-11-21T08:21:34.335Z,14.13
2022-11-21T08:24:02.964Z,15.40
2022-11-21T08:26:32.121Z,14.83
2022-11-21T08:29:00.313Z,15.97
2022-11-21T08:31:28.531Z,15.73
2022-11-21T08:33:57.337Z,15.03
2022-11-21T08:36:29.893Z,14.43
2022-11-21T08:38:58.954Z,16.87
2022-11-21T08:41:44.640Z,16.00
2022-11-21T08:44:14.342Z,16.00
2022-11-21T08:46:42.720Z,17.63
2022-11-21T08:49:10.909Z,16.37
2022-11-21T08:51:38.843Z,16.73
2022-11-21T08:54:07.087Z,16.53
2022-11-21T08:56:37.430Z,16.20
2022-11-21T08:59:05.276Z,17.73
2022-11-21T09:01:34.428Z,17.63
2022-11-21T09:04:02.615Z,16.87
2022-11-21T09:06:30.739Z,17.00
2022-11-21T09:08:58.670Z,17.40
2022-11-21T09:11:27.025Z,18.63
2022-11-21T09:14:12.863Z,17.17
2022-11-21T09:17:02.270Z,16.67
2022-11-21T09:19:37.700Z,17.90
2022-11-21T09:22:05.513Z,17.30
2022-11-21T09:24:42.420Z,17.93
2022-11-21T09:27:10.209Z,17.23
2022-11-21T09:29:39.227Z,18.73
2022-11-21T09:32:08.317Z,17.67
2022-11-21T09:34:36.237Z,17.33
2022-11-21T09:37:04.378Z,17.23
2022-11-21T09:39:35.066Z,17.23
2022-11-21T09:42:32.726Z,15.43
2022-11-21T09:45:10.428Z,16.27
2022-11-21T09:47:43.767Z,16.90
2022-11-21T09:50:28.153Z,17.13
2022-11-21T09:53:02.403Z,16.50
2022-11-21T09:55:41.386Z,15.57
2022-11-21T09:58:20.260Z,16.00
2022-11-21T10:01:04.452Z,15.77
2022-11-21T10:03:42.229Z,15.13
2022-11-21T10:06:20.295Z,14.73
2022-11-21T10:09:01.733Z,15.43
2022-11-21T10:12:01.577Z,15.13
2022-11-21T10:14:44.497Z,14.90
2022-11-21T10:19:47.689Z,14.37
2022-11-21T10:22:29.366Z,15.20
2022-11-21T10:25:02.455Z,16.30
2022-11-21T10:27:35.786Z,17.07
2022-11-21T10:30:06.309Z,18.20
2022-11-21T10:32:41.381Z,16.80
2022-11-21T10:37:35.150Z,16.53
2022-11-21T10:40:18.859Z,17.73
2022-11-21T10:42:54.325Z,17.30
2022-11-21T10:45:24.469Z,17.30
2022-11-21T10:47:54.310Z,16.83
2022-11-21T10:50:33.589Z,17.93
2022-11-21T10:53:25.641Z,17.90
2022-11-21T10:56:02.642Z,19.80
2022-11-21T10:58:49.292Z,19.60
2022-11-21T11:01:25.725Z,19.83
2022-11-21T11:06:59.846Z,18.87
2022-11-21T11:11:40.225Z,17.87
2022-11-21T11:14:15.557Z,18.73
2022-11-21T11:16:47.997Z,18.00
2022-11-21T11:19:29.787Z,19.27
2022-11-21T11:22:03.418Z,20.17
2022-11-21T11:24:31.279Z,19.60
2022-11-21T11:27:05.421Z,17.37
2022-11-21T11:29:35.509Z,20.27
2022-11-21T11:32:06.029Z,21.27
2022-11-21T11:34:40.243Z,19.90
2022-11-21T11:39:36.151Z,16.03
2022-11-21T11:42:58.496Z,17.47
2022-11-21T11:46:15.406Z,16.27
2022-11-21T11:49:16.739Z,17.27
2022-11-21T11:51:39.526Z,16.37
2022-11-21T11:54:13.447Z,18.00
2022-11-21T11:56:47.377Z,16.63
2022-11-21T11:59:22.307Z,16.10
2022-11-21T12:01:59.353Z,15.97
2022-11-21T12:04:31.078Z,15.57
2022-11-21T12:10:06.617Z,14.70
2022-11-21T12:15:16.352Z,12.70
2022-11-21T12:17:50.042Z,13.50
2022-11-21T12:20:22.425Z,13.47
2022-11-21T12:22:53.308Z,11.53
2022-11-21T12:25:25.558Z,11.47
2022-11-21T12:27:56.056Z,11.10
2022-11-21T12:30:49.829Z,10.50
2022-11-21T12:33:23.440Z,9.23
2022-11-21T12:36:22.854Z,8.80
2022-11-21T12:39:12.871Z,8.27
2022-11-21T12:42:07.054Z,6.90
2022-11-21T12:47:25.994Z,5.43
2022-11-21T12:50:21.841Z,4.87
2022-11-21T12:53:15.257Z,4.70
2022-11-21T12:55:43.293Z,4.30
2022-11-21T12:58:19.455Z,4.73
2022-11-21T13:03:30.603Z,3.93
2022-11-21T13:05:59.526Z,5.10
2022-11-21T13:16:39.878Z,4.60
2022-11-21T13:22:05.555Z,3.67
2022-11-21T13:24:59.467Z,4.53
2022-11-21T13:27:38.074Z,4.50
2022-11-21T13:32:39.182Z,4.40
2022-11-21T13:35:48.057Z,4.70
2022-11-21T13:38:20.727Z,4.33
2022-11-21T13:41:02.513Z,4.33
2022-11-21T13:43:33.705Z,4.87
2022-11-21T13:51:41.814Z,4.70
2022-11-21T13:55:00.632Z,4.00
2022-11-21T13:57:41.131Z,4.30
2022-11-21T14:00:30.322Z,4.27
2022-11-21T14:06:19.819Z,4.93
2022-11-21T14:09:08.684Z,6.27
2022-11-21T14:11:48.367Z,6.13
2022-11-21T14:14:26.104Z,5.13
2022-11-21T14:17:00.919Z,5.00
2022-11-21T14:19:31.236Z,5.77
2022-11-21T14:24:20.606Z,4.77
2022-11-21T14:29:41.863Z,6.37
2022-11-21T14:32:19.361Z,6.60
2022-11-21T14:34:49.916Z,5.97
2022-11-21T14:37:23.918Z,5.77
2022-11-21T14:39:57.096Z,6.87
2022-11-21T14:45:09.595Z,5.60
2022-11-21T14:47:47.189Z,5.53
2022-11-21T14:55:31.009Z,4.67
2022-11-21T15:03:30.452Z,4.40
2022-11-21T15:06:06.202Z,4.50
2022-11-21T15:09:33.368Z,4.87
2022-11-21T15:11:31.013Z,4.60
2022-11-21T15:14:16.908Z,4.73
2022-11-21T15:19:12.205Z,4.83
2022-11-21T15:21:48.331Z,4.50
2022-11-21T15:24:28.725Z,4.57
2022-11-21T15:26:56.652Z,4.57
2022-11-21T15:29:24.608Z,4.87
2022-11-21T15:32:12.613Z,5.67
2022-11-21T15:34:45.281Z,4.50
2022-11-21T15:37:17.042Z,5.00
2022-11-21T15:39:45.932Z,4.90
2022-11-21T15:42:30.117Z,5.10
2022-11-21T15:44:59.997Z,4.53
2022-11-21T15:47:28.488Z,5.50
2022-11-21T15:50:00.281Z,7.20
2022-11-21T15:52:30.521Z,5.63
2022-11-21T15:54:58.329Z,5.73
2022-11-21T15:57:26.959Z,5.37
2022-11-21T16:02:28.969Z,6.13
2022-11-21T16:04:57.079Z,6.63
2022-11-21T16:17:56.845Z,5.50
2022-11-21T16:20:24.689Z,5.50
2022-11-21T16:22:52.426Z,6.17
2022-11-21T16:25:23.064Z,6.30
2022-11-21T16:27:51.080Z,5.83
2022-11-21T16:30:19.236Z,5.83
2022-11-21T16:32:51.106Z,5.53
2022-11-21T16:35:20.298Z,5.63
2022-11-21T16:37:48.022Z,6.27
2022-11-21T16:40:16.231Z,6.90
2022-11-21T16:42:44.118Z,6.80
2022-11-21T16:45:12.016Z,7.80
2022-11-21T16:47:43.098Z,6.90
2022-11-21T16:50:19.785Z,7.13
2022-11-21T16:52:47.569Z,5.97
2022-11-21T16:55:17.228Z,6.00
2022-11-21T16:57:45.127Z,5.87
2022-11-21T17:00:13.531Z,6.70
2022-11-21T17:02:41.744Z,6.93
2022-11-21T17:05:10.201Z,6.57
2022-11-21T17:07:39.438Z,6.20
2022-11-21T17:10:10.319Z,6.07
2022-11-21T17:12:39.010Z,5.37
2022-11-21T17:15:09.031Z,5.73
2022-11-21T17:17:37.341Z,5.20
2022-11-21T17:20:05.865Z,4.80
2022-11-21T17:22:34.013Z,5.43
2022-11-21T17:25:05.748Z,6.10
2022-11-21T17:27:33.881Z,6.27
2022-11-21T17:30:01.763Z,6.43
2022-11-21T17:32:29.514Z,5.63
2022-11-21T17:34:57.425Z,6.77
2022-11-21T17:37:25.608Z,5.93
2022-11-21T17:39:53.835Z,5.90
2022-11-21T17:42:23.978Z,5.63
2022-11-21T17:44:51.704Z,6.37
2022-11-21T17:47:19.645Z,6.53
2022-11-21T17:49:49.913Z,6.13
2022-11-21T17:52:17.885Z,6.27
2022-11-21T17:54:47.008Z,5.87
2022-11-21T17:57:14.874Z,5.57
2022-11-21T17:59:47.075Z,4.97
2022-11-21T18:02:18.097Z,5.33
2022-11-21T18:04:47.156Z,4.57
2022-11-21T18:07:16.166Z,5.60
2022-11-21T18:09:50.159Z,5.07
2022-11-21T18:12:18.030Z,5.03
2022-11-21T18:14:49.006Z,5.93
2022-11-21T18:17:17.569Z,4.97
2022-11-21T18:19:50.665Z,4.63
2022-11-21T18:22:26.313Z,4.70
2022-11-21T18:24:57.429Z,5.07
2022-11-21T18:27:27.774Z,4.67
2022-11-21T18:29:56.957Z,5.07
2022-11-21T18:32:25.065Z,4.97
2022-11-21T18:34:52.793Z,5.00
2022-11-21T18:37:33.186Z,4.90
2022-11-21T18:42:14.655Z,4.60
2022-11-21T18:44:42.385Z,5.10
2022-11-21T18:47:20.032Z,5.73
2022-11-21T18:49:49.271Z,5.63
2022-11-21T18:52:17.058Z,5.20
2022-11-21T18:54:49.601Z,5.40
2022-11-21T18:57:18.748Z,5.00
2022-11-21T18:59:48.384Z,4.87
2022-11-21T19:02:16.713Z,4.00
2022-11-21T19:04:44.911Z,4.33
2022-11-21T19:07:12.746Z,4.63
2022-11-21T19:09:40.562Z,4.37
2022-11-21T19:12:17.513Z,5.10
2022-11-21T19:14:46.597Z,4.37
2022-11-21T19:17:14.312Z,4.30
2022-11-21T19:19:42.067Z,4.77
2022-11-21T19:22:09.991Z,5.20
2022-11-21T19:24:37.753Z,4.60
2022-11-21T19:27:08.736Z,4.70
2022-11-21T19:29:36.492Z,4.80
2022-11-21T19:32:06.095Z,4.83
2022-11-21T19:34:33.841Z,5.40
2022-11-21T19:37:01.978Z,4.50
2022-11-21T19:39:31.005Z,4.17
2022-11-21T19:44:16.253Z,5.70
2022-11-21T19:46:44.037Z,4.63
2022-11-21T19:49:13.385Z,4.17
2022-11-21T19:51:42.714Z,4.50
2022-11-21T19:54:12.831Z,3.97
2022-11-21T19:56:40.804Z,4.00
2022-11-21T19:59:10.985Z,3.73
2022-11-21T20:04:06.506Z,3.90
2022-11-21T20:06:36.173Z,4.07
2022-11-21T20:11:17.794Z,4.33
2022-11-21T20:13:48.818Z,4.13
2022-11-21T20:16:22.218Z,5.07
2022-11-21T20:18:50.907Z,5.23
2022-11-21T20:21:21.495Z,4.77
2022-11-21T20:23:53.110Z,4.80
2022-11-21T20:26:24.025Z,5.00
2022-11-21T20:28:59.101Z,5.20
2022-11-21T20:31:29.046Z,4.57
2022-11-21T20:36:14.294Z,4.90
2022-11-21T20:40:55.606Z,4.33
2022-11-21T20:43:29.719Z,4.37
2022-11-21T20:46:16.980Z,4.17
2022-11-21T20:48:48.010Z,4.27
2022-11-21T20:54:04.334Z,4.70
2022-11-21T20:56:35.207Z,4.27
2022-11-21T20:59:03.557Z,4.23
2022-11-21T21:01:31.733Z,4.23
2022-11-21T21:04:02.023Z,4.03
2022-11-21T21:06:29.843Z,4.10
2022-11-21T21:09:03.315Z,4.40
2022-11-21T21:11:50.984Z,4.33
2022-11-21T21:14:20.311Z,3.53
2022-11-21T21:16:48.139Z,4.10
2022-11-21T21:19:16.161Z,4.47
2022-11-21T21:21:44.338Z,4.63
2022-11-21T21:24:13.166Z,3.57
2022-11-21T21:26:43.643Z,3.90
2022-11-21T21:29:12.996Z,4.03
2022-11-21T21:31:48.582Z,3.67
2022-11-21T21:34:18.856Z,3.67
2022-11-21T21:36:47.031Z,3.20
2022-11-21T21:39:17.501Z,4.13
2022-11-21T21:41:46.426Z,3.93
2022-11-21T21:44:18.493Z,3.67
2022-11-21T21:46:47.582Z,4.80
2022-11-21T21:49:18.202Z,4.57
2022-11-21T21:51:48.560Z,3.63
2022-11-21T21:54:18.452Z,3.70
2022-11-21T21:59:08.278Z,3.87
2022-11-21T22:01:36.548Z,3.93
2022-11-21T22:04:06.137Z,3.47
2022-11-21T22:08:47.538Z,3.40
2022-11-21T22:11:17.222Z,3.90
2022-11-21T22:13:46.774Z,3.50
2022-11-21T22:16:14.981Z,3.93
2022-11-21T22:18:43.154Z,3.83
2022-11-21T22:21:15.254Z,3.77
2022-11-21T22:24:02.946Z,3.87
2022-11-21T22:26:33.227Z,3.77
2022-11-21T22:31:16.182Z,3.53
2022-11-21T22:33:45.022Z,3.77
2022-11-21T22:36:14.354Z,3.77
2022-11-21T22:38:48.830Z,3.70
2022-11-21T22:41:18.745Z,3.50
2022-11-21T22:43:51.077Z,3.50
2022-11-21T22:46:20.601Z,3.73
2022-11-21T22:48:50.885Z,3.40
2022-11-21T22:51:21.505Z,3.20
2022-11-21T22:53:49.745Z,3.30
2022-11-21T22:56:19.124Z,3.67
2022-11-21T22:58:47.432Z,3.20
2022-11-21T23:01:17.833Z,2.93
2022-11-21T23:03:47.616Z,3.00
2022-11-21T23:06:20.775Z,3.40
2022-11-21T23:08:49.248Z,3.43
2022-11-21T23:24:29.665Z,3.20
2022-11-21T23:29:12.989Z,3.03
2022-11-21T23:31:41.433Z,3.43
2022-11-21T23:34:12.329Z,3.47
2022-11-21T23:36:40.217Z,3.77
2022-11-21T23:39:09.102Z,3.57
2022-11-21T23:43:51.257Z,3.27
2022-11-21T23:46:19.044Z,3.43
2022-11-21T23:48:46.958Z,4.17
2022-11-21T23:51:16.329Z,3.93
2022-11-21T23:53:44.102Z,4.30
2022-11-21T23:56:12.233Z,3.93
2022-11-21T23:58:40.387Z,3.90
